Time;durP1;ratioP1;P1;durP2;ratioP2;P2;SDS_P1;SDS_P2;PMS_P1;PMS_P2;Temp;Humidity;BMP_temperature;BMP_pressure;BME280_temperature;BME280_humidity;BME280_pressure;Samples;Min_cycle;Max_cycle;Signal;HPM_P1;HPM_P2
2021/03/27 00:00:11;;;;;;;4.63;2.00;;;7.30;85.40;;;;;;4967195;28;20030;-84
2021/03/27 00:02:42;;;;;;;5.78;2.22;;;7.20;85.60;;;;;;4970768;28;20041;-84
2021/03/27 00:05:18;;;;;;;4.85;2.30;;;7.20;86.30;;;;;;4967475;28;20037;-82
2021/03/27 00:07:59;;;;;;;7.28;2.10;;;7.10;86.80;;;;;;5047576;22;20061;-79
2021/03/27 00:10:29;;;;;;;6.05;2.28;;;7.00;87.30;;;;;;4974061;28;20034;-81
2021/03/27 00:12:55;;;;;;;5.90;2.50;;;7.00;87.70;;;;;;4968489;28;20075;-80
2021/03/27 00:15:24;;;;;;;4.78;2.67;;;6.90;88.50;;;;;;4972433;28;20133;-81
2021/03/27 00:17:58;;;;;;;6.97;2.70;;;6.80;88.10;;;;;;4970423;28;20041;-79
2021/03/27 00:20:33;;;;;;;6.03;1.55;;;6.80;90.00;;;;;;4977463;28;20369;-81
2021/03/27 00:23:23;;;;;;;4.20;1.83;;;6.70;89.40;;;;;;4970120;28;20042;-86
2021/03/27 00:25:59;;;;;;;5.13;1.90;;;6.50;89.60;;;;;;4969585;28;20037;-82
2021/03/27 00:28:38;;;;;;;5.70;2.10;;;6.40;89.60;;;;;;4969626;28;20635;-83
2021/03/27 00:31:09;;;;;;;7.13;2.00;;;6.30;90.10;;;;;;4979122;28;20038;-80
2021/03/27 00:33:40;;;;;;;3.95;2.65;;;6.10;90.20;;;;;;4978460;28;20252;-82
2021/03/27 00:36:12;;;;;;;3.78;2.00;;;6.00;90.20;;;;;;4979452;28;20046;-80
2021/03/27 00:38:42;;;;;;;3.70;2.20;;;6.00;90.70;;;;;;4988582;28;21406;-82
2021/03/27 00:41:12;;;;;;;7.38;2.10;;;5.90;91.00;;;;;;4967653;28;20034;-84
2021/03/27 00:43:49;;;;;;;5.25;2.45;;;5.80;91.20;;;;;;4966069;28;20112;-81
2021/03/27 00:46:16;;;;;;;6.55;2.97;;;5.80;91.20;;;;;;4967380;28;20048;-81
2021/03/27 00:48:55;;;;;;;6.20;2.47;;;5.70;91.20;;;;;;4967517;28;20038;-82
2021/03/27 00:51:21;;;;;;;6.78;3.10;;;5.80;91.70;;;;;;4974921;28;20042;-80
2021/03/27 00:54:13;;;;;;;4.47;2.47;;;5.70;91.70;;;;;;4967130;28;20429;-80
2021/03/27 00:57:10;;;;;;;5.63;3.15;;;5.70;91.60;;;;;;4968587;28;20046;-82
2021/03/27 00:59:43;;;;;;;7.80;2.85;;;5.60;91.80;;;;;;4986169;28;20177;-83
2021/03/27 01:02:13;;;;;;;6.35;2.83;;;5.60;91.90;;;;;;4964848;28;20489;-81
2021/03/27 01:04:42;;;;;;;8.15;2.85;;;5.60;92.10;;;;;;4979685;28;20030;-82
2021/03/27 01:07:13;;;;;;;10.45;2.85;;;5.60;92.10;;;;;;4963220;28;20036;-80
2021/03/27 01:09:43;;;;;;;7.45;3.22;;;5.60;92.00;;;;;;4969608;28;20045;-81
2021/03/27 01:12:28;;;;;;;10.23;3.10;;;5.50;92.10;;;;;;4973123;28;20470;-80
2021/03/27 01:15:06;;;;;;;4.07;2.83;;;5.60;92.20;;;;;;4964550;28;20386;-83
2021/03/27 01:17:35;;;;;;;8.95;3.35;;;5.50;92.20;;;;;;4962259;28;20058;-82
2021/03/27 01:20:08;;;;;;;9.10;3.85;;;5.50;92.20;;;;;;4982781;28;21177;-80
2021/03/27 01:22:35;;;;;;;9.13;3.80;;;5.50;92.20;;;;;;4978086;28;20046;-81
2021/03/27 01:25:05;;;;;;;7.13;3.80;;;5.60;92.30;;;;;;4979579;28;20373;-81
2021/03/27 01:28:01;;;;;;;8.55;4.07;;;5.60;92.40;;;;;;4978866;28;20030;-81
2021/03/27 01:30:40;;;;;;;11.48;3.85;;;5.50;92.40;;;;;;4975385;28;20536;-82
2021/03/27 01:33:24;;;;;;;10.00;3.90;;;5.60;92.40;;;;;;4980010;28;20022;-80
2021/03/27 01:36:02;;;;;;;11.98;4.45;;;5.50;92.60;;;;;;4979674;28;20552;-80
2021/03/27 01:38:42;;;;;;;10.52;4.57;;;5.60;92.60;;;;;;4983160;28;20046;-81
2021/03/27 01:41:19;;;;;;;13.55;5.25;;;5.60;92.60;;;;;;4981198;28;20085;-80
2021/03/27 01:44:03;;;;;;;11.05;5.82;;;5.60;93.00;;;;;;4973968;28;20060;-81
2021/03/27 01:47:06;;;;;;;13.27;6.97;;;5.60;92.70;;;;;;4977924;28;20183;-80
2021/03/27 01:49:32;;;;;;;15.10;7.80;;;5.60;92.80;;;;;;4946791;28;20046;-81
2021/03/27 01:52:20;;;;;;;18.10;8.48;;;5.60;92.60;;;;;;4965125;28;20105;-81
2021/03/27 01:55:05;;;;;;;16.55;8.50;;;5.60;92.80;;;;;;4979357;28;20042;-80
2021/03/27 01:57:39;;;;;;;15.32;8.20;;;5.60;93.00;;;;;;4998036;28;20042;-81
2021/03/27 02:00:14;;;;;;;17.42;8.57;;;5.70;93.10;;;;;;4977466;28;20149;-79
2021/03/27 02:03:09;;;;;;;16.83;7.97;;;5.70;93.10;;;;;;4980184;28;20088;-79
2021/03/27 02:05:40;;;;;;;21.20;9.27;;;5.70;93.40;;;;;;4980684;28;20060;-82
2021/03/27 02:08:24;;;;;;;19.20;9.43;;;5.70;93.10;;;;;;4983899;28;20713;-80
2021/03/27 02:11:03;;;;;;;16.85;8.95;;;5.70;93.40;;;;;;4957064;28;20054;-80
2021/03/27 02:14:05;;;;;;;14.30;8.68;;;5.70;93.40;;;;;;4982830;28;21226;-80
2021/03/27 02:16:41;;;;;;;17.30;9.02;;;5.70;93.40;;;;;;4986142;28;20125;-81
2021/03/27 02:19:26;;;;;;;17.25;8.60;;;5.70;93.50;;;;;;4980735;28;20042;-82
2021/03/27 02:22:06;;;;;;;19.52;7.63;;;5.70;93.40;;;;;;4975584;28;21653;-81
2021/03/27 02:24:46;;;;;;;15.82;8.07;;;5.70;93.50;;;;;;4968482;28;20326;-81
2021/03/27 02:27:21;;;;;;;14.93;8.13;;;5.70;93.40;;;;;;4975795;28;20050;-82
2021/03/27 02:30:15;;;;;;;14.48;7.70;;;5.70;93.40;;;;;;4965879;28;20046;-81
2021/03/27 02:32:55;;;;;;;10.45;5.78;;;5.70;93.40;;;;;;4976942;28;20104;-83
2021/03/27 02:35:37;;;;;;;16.38;7.60;;;5.70;93.80;;;;;;4998140;28;20540;-81
2021/03/27 02:38:24;;;;;;;14.77;7.05;;;5.70;93.50;;;;;;4978868;28;20034;-82
2021/03/27 02:41:11;;;;;;;10.13;5.72;;;5.70;93.70;;;;;;4995475;28;20042;-82
2021/03/27 02:43:42;;;;;;;15.10;6.68;;;5.70;93.60;;;;;;4985590;28;20034;-81
2021/03/27 02:46:46;;;;;;;12.10;6.80;;;5.70;93.50;;;;;;4987450;28;20042;-81
2021/03/27 02:49:24;;;;;;;10.93;5.68;;;5.70;93.60;;;;;;4988337;28;20104;-81
2021/03/27 02:51:58;;;;;;;13.38;6.50;;;5.70;93.60;;;;;;4971052;28;20769;-82
2021/03/27 02:54:42;;;;;;;8.48;5.30;;;5.70;93.50;;;;;;4964663;28;20037;-81
2021/03/27 02:57:28;;;;;;;14.95;7.05;;;5.70;93.60;;;;;;4994364;28;20026;-82
2021/03/27 03:00:14;;;;;;;11.50;6.82;;;5.70;93.70;;;;;;4997544;28;20066;-83
2021/03/27 03:03:01;;;;;;;15.45;7.43;;;5.60;93.60;;;;;;4980067;28;20038;-80
2021/03/27 03:05:45;;;;;;;12.80;7.55;;;5.60;93.80;;;;;;4986278;28;20070;-80
2021/03/27 03:08:21;;;;;;;14.95;8.55;;;5.60;93.70;;;;;;4979708;28;20043;-82
2021/03/27 03:11:11;;;;;;;16.90;9.05;;;5.70;93.70;;;;;;4983954;28;20460;-85
2021/03/27 03:13:55;;;;;;;13.35;8.45;;;5.60;93.80;;;;;;4984353;28;20039;-80
2021/03/27 03:16:47;;;;;;;14.70;8.90;;;5.70;93.80;;;;;;4982345;28;20042;-80
2021/03/27 03:19:40;;;;;;;17.73;9.27;;;5.70;93.80;;;;;;4983446;28;20258;-82
2021/03/27 03:22:33;;;;;;;13.32;8.82;;;5.60;93.70;;;;;;4983311;28;20042;-82
2021/03/27 03:25:13;;;;;;;12.95;7.80;;;5.70;93.90;;;;;;4980089;28;20074;-80
2021/03/27 03:27:57;;;;;;;13.13;8.88;;;5.70;93.90;;;;;;4985227;28;20041;-80
2021/03/27 03:30:40;;;;;;;18.40;9.73;;;5.70;93.70;;;;;;4979877;28;20403;-81
2021/03/27 03:33:15;;;;;;;13.88;9.50;;;5.70;93.80;;;;;;4984063;28;20038;-82
2021/03/27 03:35:47;;;;;;;16.25;8.77;;;5.70;93.70;;;;;;4978413;28;20121;-80
2021/03/27 03:38:36;;;;;;;17.63;9.85;;;5.70;93.70;;;;;;4983161;28;20066;-82
2021/03/27 03:41:21;;;;;;;17.42;9.57;;;5.60;93.60;;;;;;4986046;28;20392;-80
2021/03/27 03:44:00;;;;;;;26.23;9.18;;;5.60;93.70;;;;;;4984975;28;20096;-82
2021/03/27 03:46:47;;;;;;;15.93;8.50;;;5.60;93.70;;;;;;4980031;28;20035;-79
2021/03/27 03:49:44;;;;;;;28.80;9.65;;;5.70;93.90;;;;;;4981800;28;20035;-78
2021/03/27 03:52:36;;;;;;;27.02;10.07;;;5.60;93.70;;;;;;4968437;28;21706;-83
2021/03/27 03:55:12;;;;;;;17.02;9.00;;;5.60;93.60;;;;;;4967345;28;20634;-79
2021/03/27 03:58:00;;;;;;;19.73;9.65;;;5.60;93.60;;;;;;4968218;28;20048;-80
2021/03/27 04:00:29;;;;;;;19.00;8.95;;;5.70;93.60;;;;;;4968792;28;21107;-81
2021/03/27 04:03:22;;;;;;;16.73;7.50;;;5.60;93.50;;;;;;4975862;28;20091;-81
2021/03/27 04:05:55;;;;;;;;;;;5.60;93.50;;;;;;4979692;28;20676;-81
2021/03/27 04:08:48;;;;;;;17.02;7.63;;;5.70;93.70;;;;;;4982469;28;21112;-80
2021/03/27 04:11:42;;;;;;;16.90;7.55;;;5.60;93.50;;;;;;4982670;28;20058;-79
2021/03/27 04:14:30;;;;;;;16.15;7.60;;;5.60;93.40;;;;;;4986575;28;20042;-79
2021/03/27 04:17:06;;;;;;;14.60;7.40;;;5.60;93.30;;;;;;4978903;28;20125;-79
2021/03/27 04:19:45;;;;;;;18.00;7.10;;;5.50;93.20;;;;;;4982577;28;21197;-79
2021/03/27 04:22:26;;;;;;;19.88;7.18;;;5.40;93.20;;;;;;4978754;28;20045;-81
2021/03/27 04:25:05;;;;;;;15.45;7.13;;;5.40;93.20;;;;;;4987906;28;20031;-79
2021/03/27 04:27:38;;;;;;;18.73;6.00;;;5.40;93.20;;;;;;4977106;28;20539;-80
2021/03/27 04:30:24;;;;;;;21.08;5.50;;;5.40;93.20;;;;;;4982492;28;20068;-79
2021/03/27 04:33:03;;;;;;;20.48;5.88;;;5.30;93.10;;;;;;4981074;28;20085;-79
2021/03/27 04:35:59;;;;;;;12.13;5.35;;;5.30;93.10;;;;;;4987274;28;20042;-79
2021/03/27 04:38:42;;;;;;;19.95;6.53;;;5.20;93.00;;;;;;4984847;28;20030;-80
2021/03/27 04:41:29;;;;;;;16.35;5.43;;;5.20;93.00;;;;;;4982142;28;20629;-79
2021/03/27 04:44:30;;;;;;;15.32;6.00;;;5.10;93.00;;;;;;4986561;28;20077;-79
2021/03/27 04:47:04;;;;;;;17.92;5.20;;;5.10;93.20;;;;;;4979636;28;20145;-79
2021/03/27 04:50:06;;;;;;;17.48;5.10;;;5.00;93.10;;;;;;4980525;28;20039;-80
2021/03/27 04:53:01;;;;;;;15.77;5.28;;;5.00;93.20;;;;;;4977467;28;20134;-80
2021/03/27 04:55:29;;;;;;;12.02;4.10;;;5.00;93.20;;;;;;4978375;28;20050;-81
2021/03/27 04:58:32;;;;;;;18.23;5.47;;;5.00;93.10;;;;;;4966555;28;20030;-80
2021/03/27 05:01:19;;;;;;;17.40;5.28;;;5.00;93.10;;;;;;4963843;28;20508;-80
2021/03/27 05:03:53;;;;;;;12.93;5.18;;;5.00;93.00;;;;;;4960764;28;20045;-80
2021/03/27 05:06:19;;;;;;;21.42;4.90;;;5.10;93.10;;;;;;4962980;28;20074;-79
2021/03/27 05:08:59;;;;;;;13.27;4.60;;;5.10;93.10;;;;;;4973732;28;20121;-79
2021/03/27 05:11:38;;;;;;;13.88;4.28;;;5.10;93.10;;;;;;4977540;28;20045;-79
2021/03/27 05:14:24;;;;;;;11.40;4.35;;;5.10;93.00;;;;;;4982128;28;20612;-81
2021/03/27 05:17:14;;;;;;;12.55;4.55;;;5.10;92.90;;;;;;4985797;28;20041;-78
2021/03/27 05:20:05;;;;;;;17.02;5.47;;;5.20;93.00;;;;;;4980049;28;20035;-81
2021/03/27 05:22:59;;;;;;;16.00;5.28;;;5.20;93.00;;;;;;4980583;28;20042;-83
2021/03/27 05:25:58;;;;;;;20.58;6.95;;;5.20;93.00;;;;;;4979856;28;20027;-79
2021/03/27 05:28:27;;;;;;;16.40;7.22;;;5.20;92.80;;;;;;4968328;28;20149;-80
2021/03/27 05:31:06;;;;;;;15.30;7.15;;;5.20;92.70;;;;;;4986374;28;20844;-79
2021/03/27 05:33:59;;;;;;;19.75;7.78;;;5.20;92.80;;;;;;4966401;28;20397;-80
2021/03/27 05:36:46;;;;;;;12.68;6.03;;;5.20;93.10;;;;;;4962761;28;20449;-80
2021/03/27 05:39:12;;;;;;;15.52;6.68;;;5.20;93.30;;;;;;4970470;28;20050;-80
2021/03/27 05:41:50;;;;;;;17.63;6.80;;;5.20;93.10;;;;;;4971975;28;20096;-79
2021/03/27 05:44:31;;;;;;;18.92;7.00;;;5.20;93.10;;;;;;4989925;28;20039;-79
2021/03/27 05:47:03;;;;;;;16.70;7.47;;;5.10;93.10;;;;;;4971634;28;20053;-80
2021/03/27 05:49:41;;;;;;;22.08;8.38;;;5.10;93.10;;;;;;4978386;28;20500;-81
2021/03/27 05:52:28;;;;;;;18.30;8.73;;;5.10;93.20;;;;;;4967161;28;20041;-79
2021/03/27 05:54:56;;;;;;;20.23;8.82;;;5.10;93.30;;;;;;4977429;28;20168;-81
2021/03/27 05:57:22;;;;;;;21.02;9.45;;;5.10;93.30;;;;;;4973634;28;20037;-81
2021/03/27 05:59:51;;;;;;;24.67;9.05;;;5.20;93.30;;;;;;4980194;28;20053;-81
2021/03/27 06:02:43;;;;;;;19.25;9.05;;;5.20;93.20;;;;;;4965499;28;20141;-79
2021/03/27 06:05:42;;;;;;;22.52;7.78;;;5.20;93.20;;;;;;4979087;28;20034;-79
2021/03/27 06:08:23;;;;;;;12.95;7.15;;;5.30;93.10;;;;;;4985229;28;20033;-79
2021/03/27 06:11:17;;;;;;;11.85;5.78;;;5.30;93.10;;;;;;4977770;28;20046;-81
2021/03/27 06:14:00;;;;;;;11.43;6.47;;;5.30;93.10;;;;;;4975671;28;20456;-83
2021/03/27 06:16:31;;;;;;;14.07;7.20;;;5.40;93.10;;;;;;4982598;28;20034;-79
2021/03/27 06:19:25;;;;;;;17.00;6.70;;;5.40;93.10;;;;;;4990298;28;20038;-80
2021/03/27 06:22:09;;;;;;;19.50;8.27;;;5.30;93.30;;;;;;4976423;28;20069;-82
2021/03/27 06:24:53;;;;;;;20.15;6.47;;;5.30;93.30;;;;;;4991335;28;20481;-80
2021/03/27 06:27:34;;;;;;;17.85;7.07;;;5.20;93.30;;;;;;4995251;28;20124;-79
2021/03/27 06:30:15;;;;;;;16.40;6.00;;;5.20;93.40;;;;;;4976546;28;20053;-80
2021/03/27 06:33:00;;;;;;;18.17;6.03;;;5.20;93.40;;;;;;4978431;28;20042;-82
2021/03/27 06:36:07;;;;;;;12.05;6.40;;;5.20;93.50;;;;;;4984607;28;20038;-81
2021/03/27 06:39:10;;;;;;;13.07;6.05;;;5.20;93.50;;;;;;4916772;28;20523;-81
2021/03/27 06:41:59;;;;;;;19.77;6.85;;;5.20;93.60;;;;;;4980572;28;20086;-82
2021/03/27 06:44:49;;;;;;;21.33;7.10;;;5.20;93.70;;;;;;4977361;28;20065;-79
2021/03/27 06:47:15;;;;;;;15.98;5.78;;;5.30;93.60;;;;;;4980144;28;20485;-81
2021/03/27 06:50:02;;;;;;;22.17;7.30;;;5.30;93.60;;;;;;4977757;28;20092;-81
2021/03/27 06:52:46;;;;;;;23.27;7.05;;;5.30;93.60;;;;;;4980584;28;20500;-79
2021/03/27 06:55:52;;;;;;;17.20;6.15;;;5.30;93.60;;;;;;4976490;28;20386;-81
2021/03/27 06:58:30;;;;;;;27.48;7.40;;;5.40;93.70;;;;;;4956104;28;20112;-80
2021/03/27 07:01:17;;;;;;;17.67;6.03;;;5.40;93.50;;;;;;4984580;28;20030;-79
2021/03/27 07:04:05;;;;;;;26.35;6.88;;;5.40;93.60;;;;;;4982838;28;20039;-79
2021/03/27 07:06:52;;;;;;;21.13;5.72;;;5.50;93.60;;;;;;4981678;28;20061;-82
2021/03/27 07:09:47;;;;;;;20.17;5.38;;;5.60;93.50;;;;;;4983461;28;20084;-80
2021/03/27 07:12:19;;;;;;;15.82;4.68;;;5.70;93.40;;;;;;4947625;28;20055;-80
2021/03/27 07:15:22;;;;;;;24.23;5.00;;;5.70;93.30;;;;;;4973076;28;20073;-80
2021/03/27 07:18:18;;;;;;;15.95;4.90;;;5.70;93.20;;;;;;4978851;28;20046;-80
2021/03/27 07:21:31;;;;;;;15.70;3.72;;;5.70;93.10;;;;;;4975440;28;20034;-79
2021/03/27 07:24:20;;;;;;;19.30;4.17;;;5.70;93.10;;;;;;4960337;28;20050;-81
2021/03/27 07:27:24;;;;;;;17.42;4.47;;;5.70;93.00;;;;;;4976865;28;20034;-80
2021/03/27 07:30:34;;;;;;;18.05;4.00;;;5.70;92.90;;;;;;4980041;28;20163;-80
2021/03/27 07:33:34;;;;;;;20.60;3.40;;;5.70;92.90;;;;;;4985589;28;20050;-80
2021/03/27 07:36:15;;;;;;;13.68;3.30;;;5.70;92.80;;;;;;4967022;28;20194;-79
2021/03/27 07:38:52;;;;;;;22.25;3.60;;;5.80;92.60;;;;;;4987108;28;20392;-79
2021/03/27 07:41:42;;;;;;;18.90;3.78;;;5.90;92.50;;;;;;4984968;28;20673;-80
2021/03/27 07:44:29;;;;;;;20.70;3.45;;;6.00;92.30;;;;;;4988594;28;20037;-78
2021/03/27 07:47:34;;;;;;;18.67;3.70;;;6.10;92.00;;;;;;4987335;28;20489;-80
2021/03/27 07:50:20;;;;;;;22.15;3.20;;;6.30;91.70;;;;;;4983459;28;20448;-80
2021/03/27 07:52:49;;;;;;;17.45;2.88;;;6.30;91.30;;;;;;4985355;28;20121;-78
2021/03/27 07:55:36;;;;;;;22.40;3.72;;;6.30;91.30;;;;;;4985798;28;20046;-83
2021/03/27 07:58:23;;;;;;;15.52;3.08;;;6.20;90.90;;;;;;4969467;28;20038;-81
2021/03/27 08:01:35;;;;;;;17.50;2.63;;;6.20;90.80;;;;;;4984458;28;20053;-80
2021/03/27 08:04:39;;;;;;;23.30;3.22;;;6.20;90.90;;;;;;4981246;28;20137;-78
2021/03/27 08:07:09;;;;;;;;;;;6.20;90.60;;;;;;4995246;28;20117;-82
2021/03/27 08:10:19;;;;;;;26.70;4.03;;;6.20;90.50;;;;;;4987427;28;19922;-79
2021/03/27 08:13:00;;;;;;;17.20;3.20;;;6.20;90.60;;;;;;4980252;28;20074;-80
2021/03/27 08:15:51;;;;;;;24.38;3.45;;;6.20;90.40;;;;;;4976463;28;20559;-80
2021/03/27 08:18:35;;;;;;;18.35;2.75;;;6.30;90.50;;;;;;4982530;28;20042;-80
2021/03/27 08:21:25;;;;;;;21.63;3.47;;;6.30;90.50;;;;;;4985509;28;20043;-79
2021/03/27 08:24:00;;;;;;;23.77;3.13;;;6.30;90.40;;;;;;4990598;28;20090;-81
2021/03/27 08:26:44;;;;;;;18.58;2.90;;;6.40;90.30;;;;;;4980971;28;20058;-83
2021/03/27 08:29:44;;;;;;;16.67;2.88;;;6.40;89.10;;;;;;4958705;28;20157;-81
2021/03/27 08:32:39;;;;;;;16.00;2.53;;;6.50;88.90;;;;;;4984592;28;20152;-83
2021/03/27 08:35:30;;;;;;;19.88;2.92;;;6.50;87.90;;;;;;4988058;28;20501;-80
2021/03/27 08:38:32;;;;;;;16.42;2.70;;;6.50;87.10;;;;;;4984235;28;20100;-84
2021/03/27 08:41:30;;;;;;;20.95;3.03;;;6.40;87.30;;;;;;4986806;28;20424;-80
2021/03/27 08:44:28;;;;;;;18.85;3.13;;;6.30;87.90;;;;;;4980925;28;20493;-80
2021/03/27 08:47:14;;;;;;;19.67;3.03;;;6.30;88.40;;;;;;4985223;28;20045;-79
2021/03/27 08:50:04;;;;;;;23.35;3.17;;;6.30;88.60;;;;;;4981194;28;20072;-79
2021/03/27 08:53:08;;;;;;;27.52;3.63;;;6.30;88.40;;;;;;4987584;28;20049;-80
2021/03/27 08:55:54;;;;;;;16.25;2.92;;;6.50;88.70;;;;;;4971496;28;20050;-79
2021/03/27 08:58:54;;;;;;;13.90;2.60;;;6.70;86.60;;;;;;4982089;28;20034;-78
2021/03/27 09:01:32;;;;;;;15.80;2.67;;;6.70;83.20;;;;;;4982873;28;20037;-81
2021/03/27 09:04:36;;;;;;;12.63;2.30;;;6.70;81.10;;;;;;4984375;28;20046;-81
2021/03/27 09:07:26;;;;;;;13.73;2.60;;;6.70;80.20;;;;;;4946230;28;20210;-78
2021/03/27 09:10:20;;;;;;;14.30;2.55;;;6.70;80.00;;;;;;4988331;28;20049;-82
2021/03/27 09:13:04;;;;;;;13.20;2.65;;;6.70;80.60;;;;;;4982023;28;20034;-80
2021/03/27 09:15:54;;;;;;;18.92;2.55;;;6.80;81.60;;;;;;4980747;28;20042;-79
2021/03/27 09:18:29;;;;;;;14.02;2.40;;;6.90;81.50;;;;;;4979669;28;20038;-82
2021/03/27 09:21:07;;;;;;;11.60;2.22;;;7.00;81.40;;;;;;4977665;28;20461;-80
2021/03/27 09:23:45;;;;;;;15.57;2.00;;;6.90;80.90;;;;;;4977350;28;20485;-81
2021/03/27 09:26:29;;;;;;;17.10;2.72;;;6.80;81.20;;;;;;4969955;28;20239;-80
2021/03/27 09:29:13;;;;;;;15.07;2.33;;;6.60;81.40;;;;;;4991565;28;20034;-82
2021/03/27 09:32:06;;;;;;;15.73;2.30;;;6.50;81.80;;;;;;4979941;28;20054;-81
2021/03/27 09:34:57;;;;;;;16.60;2.72;;;6.50;81.10;;;;;;4992469;28;20129;-80
2021/03/27 09:37:30;;;;;;;14.18;2.00;;;6.50;82.70;;;;;;4982994;28;20031;-81
2021/03/27 09:40:29;;;;;;;9.07;1.85;;;6.70;83.50;;;;;;4979398;28;20137;-82
2021/03/27 09:43:32;;;;;;;10.95;1.90;;;6.80;82.60;;;;;;4978196;28;20157;-80
2021/03/27 09:46:32;;;;;;;12.82;2.13;;;6.70;81.60;;;;;;4983123;28;20065;-79
2021/03/27 09:49:30;;;;;;;14.40;2.28;;;6.60;80.60;;;;;;4986832;28;20050;-79
2021/03/27 09:52:17;;;;;;;12.95;2.78;;;6.50;81.50;;;;;;4985016;28;20038;-79
2021/03/27 09:55:02;;;;;;;14.68;2.78;;;6.30;81.50;;;;;;4984705;28;20053;-78
2021/03/27 09:57:45;;;;;;;11.57;1.67;;;6.00;81.70;;;;;;4974673;28;20057;-80
2021/03/27 10:00:50;;;;;;;10.43;1.90;;;5.80;81.90;;;;;;4979156;28;20089;-82
2021/03/27 10:03:50;;;;;;;6.78;1.63;;;5.60;82.80;;;;;;4976266;28;20054;-80
2021/03/27 10:06:53;;;;;;;12.55;1.77;;;5.40;84.30;;;;;;4980575;28;20397;-80
2021/03/27 10:09:29;;;;;;;9.55;2.13;;;5.50;85.10;;;;;;4961098;28;20340;-79
2021/03/27 10:12:42;;;;;;;17.40;2.75;;;5.60;85.30;;;;;;4977249;28;20581;-80
2021/03/27 10:15:23;;;;;;;17.73;2.75;;;5.70;85.60;;;;;;4946682;28;20278;-80
2021/03/27 10:18:07;;;;;;;19.40;2.40;;;5.80;85.60;;;;;;4981684;28;20444;-79
2021/03/27 10:20:48;;;;;;;17.42;2.80;;;5.90;85.60;;;;;;4989384;28;20034;-81
2021/03/27 10:23:31;;;;;;;20.92;2.63;;;6.00;85.80;;;;;;4983636;28;20062;-80
2021/03/27 10:26:20;;;;;;;12.43;2.38;;;6.10;85.30;;;;;;4982923;28;20343;-80
2021/03/27 10:28:56;;;;;;;12.15;2.00;;;6.30;85.30;;;;;;4983068;28;20050;-82
2021/03/27 10:31:30;;;;;;;15.57;2.80;;;6.40;85.00;;;;;;4988931;28;20448;-78
2021/03/27 10:34:22;;;;;;;15.38;2.60;;;6.50;84.80;;;;;;4985002;28;20034;-80
2021/03/27 10:37:02;;;;;;;13.85;2.78;;;6.70;83.80;;;;;;4967441;28;20054;-80
2021/03/27 10:39:51;;;;;;;17.20;2.58;;;7.00;82.60;;;;;;4986374;28;20378;-80
2021/03/27 10:42:36;;;;;;;11.25;2.05;;;7.30;80.70;;;;;;4986291;28;20046;-80
2021/03/27 10:45:11;;;;;;;13.15;2.58;;;7.50;79.40;;;;;;4986751;28;20161;-79
2021/03/27 10:47:48;;;;;;;18.27;2.47;;;7.40;79.10;;;;;;4984892;28;20165;-81
2021/03/27 10:50:38;;;;;;;13.70;2.58;;;7.30;78.70;;;;;;4987516;28;20052;-80
2021/03/27 10:53:39;;;;;;;9.73;1.92;;;7.30;78.10;;;;;;4985002;28;20041;-81
2021/03/27 10:56:28;;;;;;;11.32;2.25;;;7.30;77.50;;;;;;4988553;28;20128;-81
2021/03/27 10:59:21;;;;;;;15.65;2.85;;;7.40;78.00;;;;;;5007480;28;22075;-80
2021/03/27 11:02:08;;;;;;;15.05;2.58;;;7.70;76.90;;;;;;4989652;28;20144;-80
2021/03/27 11:04:46;;;;;;;13.75;2.20;;;7.80;76.20;;;;;;4991923;28;20037;-78
2021/03/27 11:07:50;;;;;;;13.27;2.25;;;7.40;74.60;;;;;;5001584;28;20540;-81
2021/03/27 11:10:55;;;;;;;13.50;2.50;;;6.60;75.50;;;;;;4984715;28;20046;-86
2021/03/27 11:13:40;;;;;;;13.98;2.95;;;5.80;79.30;;;;;;4983357;28;20078;-84
2021/03/27 11:16:25;;;;;;;12.23;2.75;;;5.40;81.20;;;;;;4984975;28;20375;-88
2021/03/27 11:19:02;;;;;;;24.42;3.33;;;5.30;83.80;;;;;;4989973;28;20121;-83
2021/03/27 11:21:47;;;;;;;24.70;2.95;;;5.30;83.50;;;;;;4986619;28;20026;-83
2021/03/27 11:24:41;;;;;;;17.90;2.53;;;5.30;82.90;;;;;;4981287;28;20065;-83
2021/03/27 11:27:18;;;;;;;10.23;1.80;;;5.20;83.50;;;;;;4985161;28;20038;-82
2021/03/27 11:30:14;;;;;;;18.25;2.15;;;5.10;82.40;;;;;;4987547;28;20137;-80
2021/03/27 11:32:46;;;;;;;14.07;2.47;;;5.10;82.90;;;;;;4975540;28;20287;-80
2021/03/27 11:35:34;;;;;;;13.23;2.17;;;5.10;83.40;;;;;;4992006;28;20061;-81
2021/03/27 11:38:00;;;;;;;15.23;2.42;;;5.10;82.70;;;;;;4984783;28;20567;-80
2021/03/27 11:40:39;;;;;;;16.90;2.50;;;5.30;83.40;;;;;;4982198;28;20152;-80
2021/03/27 11:43:23;;;;;;;17.17;2.45;;;5.50;83.00;;;;;;4982969;28;20405;-81
2021/03/27 11:45:56;;;;;;;15.05;2.72;;;5.60;82.10;;;;;;4982271;28;20030;-79
2021/03/27 11:48:28;;;;;;;15.80;2.60;;;5.60;82.10;;;;;;4983754;28;20034;-82
2021/03/27 11:51:29;;;;;;;16.55;2.38;;;5.60;82.10;;;;;;4983287;28;20042;-84
2021/03/27 11:54:03;;;;;;;12.73;1.98;;;5.80;83.60;;;;;;4965789;28;20070;-80
2021/03/27 11:56:46;;;;;;;12.65;2.08;;;6.20;83.70;;;;;;4992769;28;20033;-86
2021/03/27 12:02:17;;;;;;;12.52;2.20;;;7.00;80.40;;;;;;4981860;28;19921;-80
2021/03/27 12:04:45;;;;;;;7.97;1.20;;;7.10;78.20;;;;;;4984860;28;20168;-78
2021/03/27 12:07:56;;;;;;;5.70;1.63;;;7.00;79.70;;;;;;4987336;28;20125;-81
2021/03/27 12:10:37;;;;;;;5.47;1.17;;;6.70;79.60;;;;;;4985859;28;20054;-80
2021/03/27 12:13:11;;;;;;;7.00;2.13;;;6.40;80.20;;;;;;4983020;28;20045;-81
2021/03/27 12:16:14;;;;;;;8.40;2.13;;;6.30;81.70;;;;;;4978735;28;20481;-80
2021/03/27 12:18:52;;;;;;;;;;;6.30;81.70;;;;;;4974680;28;20607;-80
2021/03/27 12:21:29;;;;;;;8.73;1.45;;;6.10;82.10;;;;;;4979548;28;19930;-79
2021/03/27 12:24:00;;;;;;;8.07;1.70;;;6.00;83.40;;;;;;4987669;28;20165;-81
2021/03/27 12:26:38;;;;;;;8.68;1.60;;;5.70;84.70;;;;;;4981273;28;20068;-85
2021/03/27 12:29:10;;;;;;;16.23;2.55;;;5.40;86.20;;;;;;4979116;28;20038;-80
2021/03/27 12:31:45;;;;;;;8.90;1.83;;;5.20;87.50;;;;;;4968052;28;20030;-80
2021/03/27 12:34:50;;;;;;;10.05;2.10;;;5.00;88.70;;;;;;4980111;28;20034;-81
2021/03/27 12:37:32;;;;;;;10.00;1.98;;;5.10;90.10;;;;;;4966083;28;20216;-80
2021/03/27 12:40:18;;;;;;;9.30;1.98;;;5.20;90.40;;;;;;4983306;28;20540;-79
2021/03/27 12:42:56;;;;;;;9.27;2.13;;;5.30;90.10;;;;;;4984108;28;20743;-81
2021/03/27 12:45:25;;;;;;;13.73;1.92;;;5.20;90.10;;;;;;4971665;28;20397;-80
2021/03/27 12:48:03;;;;;;;10.02;1.67;;;5.20;90.10;;;;;;4983610;28;20038;-81
2021/03/27 12:50:51;;;;;;;14.57;2.03;;;5.10;90.30;;;;;;4980312;28;20133;-80
2021/03/27 12:53:31;;;;;;;9.25;2.00;;;5.00;90.90;;;;;;4975088;28;20046;-83
2021/03/27 12:56:43;;;;;;;9.38;1.60;;;5.10;90.80;;;;;;4982362;28;20065;-80
2021/03/27 12:59:46;;;;;;;12.60;1.63;;;5.10;90.90;;;;;;4985917;28;20045;-80
2021/03/27 13:02:27;;;;;;;11.65;2.03;;;5.20;91.20;;;;;;4993422;28;20129;-81
2021/03/27 13:04:52;;;;;;;16.27;2.00;;;5.20;90.80;;;;;;4977607;28;20121;-80
2021/03/27 13:10:15;;;;;;;12.45;1.90;;;5.20;90.80;;;;;;5121810;27;20402;-79
2021/03/27 13:13:02;;;;;;;7.20;1.75;;;5.20;91.20;;;;;;5107386;27;20042;-80
2021/03/27 13:15:32;;;;;;;17.02;2.20;;;5.30;91.20;;;;;;5122597;27;20038;-79
2021/03/27 13:18:28;;;;;;;17.52;2.65;;;5.30;91.10;;;;;;5113452;27;20028;-79
2021/03/27 13:21:19;;;;;;;12.27;2.65;;;5.50;91.50;;;;;;5112413;27;20028;-79
2021/03/27 13:24:06;;;;;;;12.95;2.92;;;6.40;92.10;;;;;;5104147;27;20486;-80
2021/03/27 13:26:33;;;;;;;18.20;2.38;;;6.90;91.10;;;;;;5106592;27;20039;-80
2021/03/27 13:29:32;;;;;;;20.65;3.45;;;6.90;90.40;;;;;;5110136;27;20115;-82
2021/03/27 13:32:06;;;;;;;12.20;2.55;;;7.00;90.80;;;;;;5114297;27;20041;-80
2021/03/27 13:34:36;;;;;;;13.60;2.88;;;7.60;91.30;;;;;;5122216;27;20121;-79
2021/03/27 13:37:12;;;;;;;16.33;3.15;;;8.30;90.90;;;;;;5110441;27;20085;-80
2021/03/27 13:39:42;;;;;;;18.10;3.83;;;8.50;90.50;;;;;;5112612;27;20035;-81
2021/03/27 13:42:23;;;;;;;13.35;3.60;;;9.00;90.40;;;;;;5110755;27;20055;-79
2021/03/27 13:44:52;;;;;;;12.65;2.80;;;9.50;90.30;;;;;;5106926;27;20027;-81
2021/03/27 13:47:34;;;;;;;15.52;2.95;;;10.20;89.10;;;;;;5109566;28;20038;-79
2021/03/27 13:50:24;;;;;;;25.98;5.18;;;10.50;85.10;;;;;;5115113;27;20489;-78
2021/03/27 13:53:17;;;;;;;12.77;2.35;;;10.60;85.50;;;;;;5113571;27;20478;-79
2021/03/27 13:55:46;;;;;;;21.55;5.20;;;10.10;79.60;;;;;;5108753;27;20047;-80
2021/03/27 13:58:11;;;;;;;18.27;4.97;;;9.60;82.60;;;;;;5114750;27;20553;-79
2021/03/27 14:00:48;;;;;;;17.42;3.97;;;9.60;82.90;;;;;;5106598;27;20433;-79
2021/03/27 14:03:32;;;;;;;16.40;2.80;;;9.20;81.50;;;;;;5109078;27;20040;-80
2021/03/27 14:06:12;;;;;;;13.35;2.60;;;8.80;81.60;;;;;;5117114;27;20064;-78
2021/03/27 14:09:03;;;;;;;16.27;3.33;;;8.70;82.20;;;;;;5106105;27;20130;-78
2021/03/27 14:11:37;;;;;;;13.55;2.72;;;8.60;82.30;;;;;;5107529;27;20066;-78
2021/03/27 14:14:08;;;;;;;14.05;2.35;;;8.80;82.90;;;;;;5111717;27;20043;-80
2021/03/27 14:16:53;;;;;;;12.63;2.20;;;9.00;82.10;;;;;;5106226;27;20039;-79
2021/03/27 14:19:34;;;;;;;11.23;2.20;;;8.90;79.30;;;;;;5112064;27;20119;-78
2021/03/27 14:22:24;;;;;;;14.70;2.03;;;8.90;79.10;;;;;;5089231;28;20044;-78